Fond du Lac, WI (54935)

6:18 PM CDT on May 29, 2017 (GMT -0500)
Middle of city | | Change Station

Elev 780 ft 43.76 °N, 88.44 °W | Updated 10 seconds ago

Overcast
Overcast
62.9 °F
Feels Like 62.9 °F
N
3.0
Wind Variable Wind from WNW
Gusts 3.0 mph

Today
High -- | Low -- °F
--% Chance of Precip.
Yesterday
High -- | Low -- °F
Precip. -- in
Pressure 29.79 in
Visibility 10.0 miles
Clouds Mostly Cloudy 6000 ft
Overcast 7500 ft
Dew Point 51 °F
Humidity 66%
Rainfall 0.00 in
Snow Depth Not available.
5:16 AM 8:26 PM
Waxing Crescent, 23% visible
METAR KFLD 292253Z AUTO 30016G30KT 10SM -RA BKN060 OVC075 16/08 A2979 RMK AO2 PK WND 28030/2244 RAB44 SLP088 P0000 T01560083
Pressure 29.79 in
Visibility 10.0 miles
Clouds Mostly Cloudy 6000 ft
Overcast 7500 ft
Dew Point 51 °F
Humidity 66%
Rainfall 0.00 in
Snow Depth Not available.
5:16 AM 8:26 PM
Waxing Crescent, 23% visible
METAR KFLD 292253Z AUTO 30016G30KT 10SM -RA BKN060 OVC075 16/08 A2979 RMK AO2 PK WND 28030/2244 RAB44 SLP088 P0000 T01560083

Get Severe Weather Alerts

Thanks for signing up!

Be on the lookout for a verification email in your inbox.

You'll start receiving the daily forecast at 6 AM.

×

10-Day Weather Forecast

Almanac

Astronomy

May. 29, 2017 Rise Set
Actual Time
Civil Twilight
Nautical Twilight
Astronomical Twilight
Moon
Length of Visible Light
Length of Day
Tomorrow will be .
, % of the Moon is Illuminated

Today's Extremes

State Highs State Lows

Community

WunderPhotos

Category 6

Welcome to Category 6. This is the collective home for Weather Underground's featured writeups by Dr. Jeff Masters (right), Bob Henson (left), Chris Burt, and other regular contributors.

Nearby

Air Quality

  Air Quality AQ Index Pollutant
Not available.

Snow Depth

Station Depth Elevation

Earthquake Activity

City Distance Mag. Time & Date
Minimum magnitude displayed is 2.5.

Coastal Water Temperatures

Place Temperature

Stations

Nearby Weather Stations

Station Location Temp. Windchill Dew Point Humidity Wind Precip. Elev Updated Type
                   

Watches & Warnings

There are currently no watches in effect.